createdAt,value
2023-01-09T00:00:28.817Z,95729.56
2023-01-09T00:02:55.723Z,95721.44
2023-01-09T00:05:24.650Z,95720.38
2023-01-09T00:07:51.287Z,95685.88
2023-01-09T00:10:17.935Z,95672.97
2023-01-09T00:12:44.612Z,95644.47
2023-01-09T00:15:11.836Z,95640.81
2023-01-09T00:17:39.094Z,95666.53
2023-01-09T00:20:07.613Z,95655.50
2023-01-09T00:22:34.331Z,95648.66
2023-01-09T00:25:04.223Z,95652.66
2023-01-09T00:27:32.697Z,95647.50
2023-01-09T00:29:59.513Z,95628.97
2023-01-09T00:32:26.940Z,95598.69
2023-01-09T00:34:54.592Z,95601.75
2023-01-09T00:37:21.672Z,95606.44
2023-01-09T00:39:48.292Z,95616.66
2023-01-09T00:42:21.904Z,95669.34
2023-01-09T00:44:51.095Z,95698.13
2023-01-09T00:47:25.427Z,95687.91
2023-01-09T00:49:53.563Z,95691.66
2023-01-09T00:52:22.990Z,95693.16
2023-01-09T00:54:50.356Z,95685.66
2023-01-09T00:57:17.094Z,95694.22
2023-01-09T00:59:44.243Z,95660.78
2023-01-09T01:02:13.379Z,95679.28
2023-01-09T01:04:58.740Z,95685.53
2023-01-09T01:07:41.208Z,95666.53
2023-01-09T01:10:11.631Z,95686.03
2023-01-09T01:12:39.527Z,95677.56
2023-01-09T01:15:09.891Z,95677.06
2023-01-09T01:17:38.305Z,95672.97
2023-01-09T01:20:07.729Z,95668.50
2023-01-09T01:22:34.642Z,95682.94
2023-01-09T01:25:01.431Z,95659.50
2023-01-09T01:27:28.737Z,95668.88
2023-01-09T01:29:55.780Z,95679.78
2023-01-09T01:32:22.984Z,95692.81
2023-01-09T01:34:49.690Z,95702.56
2023-01-09T01:37:16.351Z,95715.47
2023-01-09T01:39:43.035Z,95719.69
2023-01-09T01:42:13.028Z,95725.00
2023-01-09T01:45:08.700Z,95723.22
2023-01-09T01:47:44.451Z,95725.81
2023-01-09T01:50:37.345Z,95733.41
2023-01-09T01:53:34.429Z,95727.81
2023-01-09T01:56:11.902Z,95724.84
2023-01-09T01:58:43.527Z,95740.50
2023-01-09T02:01:10.839Z,95730.47
2023-01-09T02:03:39.985Z,95705.94
2023-01-09T02:06:09.808Z,95701.84
2023-01-09T02:08:36.837Z,95692.09
2023-01-09T02:11:05.038Z,95699.38
2023-01-09T02:13:34.931Z,95692.81
2023-01-09T02:16:23.906Z,95681.06
2023-01-09T02:19:02.808Z,95675.09
2023-01-09T02:21:41.467Z,95671.00
2023-01-09T02:24:11.002Z,95663.59
2023-01-09T02:27:13.914Z,95650.09
2023-01-09T02:29:59.445Z,95642.94
2023-01-09T02:32:53.416Z,95644.47
2023-01-09T02:35:39.987Z,95659.72
2023-01-09T02:38:12.696Z,95657.84
2023-01-09T02:40:54.986Z,95680.59
2023-01-09T02:43:22.680Z,95680.16
2023-01-09T02:45:49.262Z,95679.19
2023-01-09T02:48:16.062Z,95670.16
2023-01-09T02:50:53.082Z,95659.13
2023-01-09T02:53:37.755Z,95659.25
2023-01-09T02:56:46.267Z,95658.44
2023-01-09T02:59:29.303Z,95654.91
2023-01-09T03:02:25.095Z,95664.31
2023-01-09T03:05:12.478Z,95667.44
2023-01-09T03:07:48.418Z,95663.09
2023-01-09T03:10:20.913Z,95665.94
2023-01-09T03:12:51.347Z,95657.13
2023-01-09T03:15:19.741Z,95653.28
2023-01-09T03:17:48.604Z,95667.00
2023-01-09T03:20:21.440Z,95665.59
2023-01-09T03:23:00.697Z,95672.88
2023-01-09T03:25:29.313Z,95690.59
2023-01-09T03:28:05.189Z,95689.41
2023-01-09T03:30:33.792Z,95699.50
2023-01-09T03:33:00.637Z,95727.22
2023-01-09T03:35:29.796Z,95728.75
2023-01-09T03:37:56.466Z,95731.78
2023-01-09T03:40:25.381Z,95726.00
2023-01-09T03:42:51.998Z,95731.53
2023-01-09T03:45:20.889Z,95742.66
2023-01-09T03:47:47.519Z,95737.88
2023-01-09T03:50:14.260Z,95742.38
2023-01-09T03:52:41.474Z,95745.06
2023-01-09T03:55:08.766Z,95740.09
2023-01-09T03:57:35.384Z,95730.38
2023-01-09T04:00:02.279Z,95724.03
2023-01-09T04:02:28.931Z,95720.03
2023-01-09T04:04:55.521Z,95718.00
2023-01-09T04:07:24.400Z,95728.59
2023-01-09T04:09:51.165Z,95710.22
2023-01-09T04:12:17.787Z,95695.63
2023-01-09T04:14:46.852Z,95699.53
2023-01-09T04:17:13.489Z,95709.38
2023-01-09T04:19:40.065Z,95701.97
2023-01-09T04:22:06.797Z,95700.81
2023-01-09T04:24:33.492Z,95704.56
2023-01-09T04:27:02.505Z,95712.09
2023-01-09T04:29:29.167Z,95714.41
2023-01-09T04:31:55.812Z,95728.69
2023-01-09T04:34:25.919Z,95725.19
2023-01-09T04:36:53.362Z,95717.22
2023-01-09T04:39:24.397Z,95723.59
2023-01-09T04:41:51.093Z,95728.41
2023-01-09T04:44:19.466Z,95729.56
2023-01-09T04:46:46.213Z,95711.59
2023-01-09T04:49:13.075Z,95706.69
2023-01-09T04:51:44.525Z,95713.25
2023-01-09T04:54:11.577Z,95711.50
2023-01-09T04:56:38.449Z,95717.00
2023-01-09T04:59:08.581Z,95727.34
2023-01-09T05:01:35.809Z,95742.94
2023-01-09T05:04:03.071Z,95745.78
2023-01-09T05:06:32.633Z,95749.41
2023-01-09T05:08:59.316Z,95745.53
2023-01-09T05:11:25.928Z,95760.81
2023-01-09T05:13:54.881Z,95761.16
2023-01-09T05:16:22.033Z,95764.44
2023-01-09T05:18:48.749Z,95765.13
2023-01-09T05:21:15.487Z,95763.72
2023-01-09T05:23:44.468Z,95775.59
2023-01-09T05:26:11.067Z,95778.44
2023-01-09T05:28:37.748Z,95774.63
2023-01-09T05:31:04.342Z,95773.56
2023-01-09T05:33:30.925Z,95777.56
2023-01-09T05:35:57.671Z,95778.53
2023-01-09T05:38:24.282Z,95787.09
2023-01-09T05:40:50.905Z,95808.63
2023-01-09T05:43:17.448Z,95802.94
2023-01-09T05:45:44.079Z,95820.13
2023-01-09T05:48:10.690Z,95827.38
2023-01-09T05:50:37.284Z,95832.19
2023-01-09T05:53:06.737Z,95828.31
2023-01-09T05:55:33.616Z,95834.84
2023-01-09T05:58:00.359Z,95825.38
2023-01-09T06:00:29.894Z,95830.38
2023-01-09T06:02:56.560Z,95836.03
2023-01-09T06:05:23.526Z,95842.72
2023-01-09T06:07:50.153Z,95848.38
2023-01-09T06:10:21.820Z,95847.22
2023-01-09T06:12:51.128Z,95858.59
2023-01-09T06:15:18.113Z,95857.63
2023-01-09T06:17:44.710Z,95856.84
2023-01-09T06:20:11.963Z,95863.47
2023-01-09T06:22:38.817Z,95870.06
2023-01-09T06:25:05.888Z,95873.72
2023-01-09T06:27:32.439Z,95877.75
2023-01-09T06:29:59.061Z,95880.09
2023-01-09T06:32:28.680Z,95884.34
2023-01-09T06:34:55.290Z,95891.16
2023-01-09T06:37:24.074Z,95888.81
2023-01-09T06:39:55.337Z,95894.19
2023-01-09T06:42:24.431Z,95889.16
2023-01-09T06:44:50.980Z,95895.38
2023-01-09T06:47:17.727Z,95889.50
2023-01-09T06:49:44.338Z,95899.00
2023-01-09T06:52:13.834Z,95901.22
2023-01-09T06:54:40.376Z,95893.06
2023-01-09T06:57:07.011Z,95901.97
2023-01-09T06:59:33.657Z,95901.66
2023-01-09T07:02:00.263Z,95909.97
2023-01-09T07:04:27.016Z,95922.22
2023-01-09T07:06:53.567Z,95923.50
2023-01-09T07:09:20.095Z,95930.91
2023-01-09T07:11:46.723Z,95930.78
2023-01-09T07:14:13.385Z,95940.66
2023-01-09T07:16:40.194Z,95945.81
2023-01-09T07:19:06.751Z,95955.38
2023-01-09T07:21:33.331Z,95960.47
2023-01-09T07:23:59.938Z,95963.56
2023-01-09T07:26:26.491Z,95969.19
2023-01-09T07:28:53.143Z,95966.88
2023-01-09T07:31:19.763Z,95962.56
2023-01-09T07:33:46.325Z,95968.00
2023-01-09T07:36:12.916Z,95970.91
2023-01-09T07:38:39.725Z,95977.72
2023-01-09T07:41:06.484Z,95976.06
2023-01-09T07:43:33.096Z,95974.66
2023-01-09T07:45:59.709Z,95985.50
2023-01-09T07:48:26.343Z,95983.25
2023-01-09T07:50:52.936Z,95988.88
2023-01-09T07:53:19.537Z,95989.94
2023-01-09T07:55:48.522Z,96005.50
2023-01-09T07:58:17.437Z,95998.16
2023-01-09T08:00:46.629Z,96001.41
2023-01-09T08:03:13.234Z,96009.84
2023-01-09T08:05:39.854Z,96008.44
2023-01-09T08:08:07.163Z,96016.59
2023-01-09T08:10:33.761Z,96023.69
2023-01-09T08:13:00.433Z,96027.75
2023-01-09T08:15:30.843Z,96036.91
2023-01-09T08:17:59.658Z,96047.19
2023-01-09T08:20:27.602Z,96039.13
2023-01-09T08:22:55.114Z,96048.69
2023-01-09T08:25:21.737Z,96048.06
2023-01-09T08:27:48.376Z,96061.97
2023-01-09T08:30:16.072Z,96059.13
2023-01-09T08:32:49.272Z,96062.16
2023-01-09T08:35:15.890Z,96078.44
2023-01-09T08:37:47.245Z,96093.03
2023-01-09T08:40:15.645Z,96096.97
2023-01-09T08:43:00.870Z,96093.09
2023-01-09T08:45:49.007Z,96106.16
2023-01-09T08:48:17.727Z,96112.19
2023-01-09T08:50:44.749Z,96117.63
2023-01-09T08:53:11.762Z,96126.28
2023-01-09T08:55:38.843Z,96131.97
2023-01-09T08:58:05.431Z,96138.50
2023-01-09T09:00:34.612Z,96154.13
2023-01-09T09:03:04.113Z,96165.31
2023-01-09T09:05:34.497Z,96169.09
2023-01-09T09:08:02.661Z,96181.09
2023-01-09T09:10:30.028Z,96188.78
2023-01-09T09:12:58.316Z,96193.63
2023-01-09T09:15:26.665Z,96202.97
2023-01-09T09:17:55.605Z,96207.47
2023-01-09T09:20:23.229Z,96209.50
2023-01-09T09:22:50.210Z,96224.13
2023-01-09T09:25:19.494Z,96228.66
2023-01-09T09:27:46.558Z,96227.13
2023-01-09T09:30:15.065Z,96229.88
2023-01-09T09:32:41.958Z,96236.84
2023-01-09T09:35:09.481Z,96248.91
2023-01-09T09:37:39.224Z,96245.94
2023-01-09T09:40:18.074Z,96244.56
2023-01-09T09:43:29.996Z,96244.31
2023-01-09T09:46:01.054Z,96243.94
2023-01-09T09:48:41.327Z,96251.00
2023-01-09T09:51:29.689Z,96250.28
2023-01-09T09:54:05.489Z,96242.91
2023-01-09T09:56:36.279Z,96241.94
2023-01-09T09:59:07.799Z,96243.00
2023-01-09T10:01:39.119Z,96243.38
2023-01-09T10:04:16.703Z,96232.38
2023-01-09T10:06:51.523Z,96229.69
2023-01-09T10:09:40.077Z,96228.59
2023-01-09T10:12:38.392Z,96220.44
2023-01-09T10:15:23.781Z,96221.56
2023-01-09T10:18:07.032Z,96228.00
2023-01-09T10:20:44.768Z,96230.94
2023-01-09T10:23:28.822Z,96231.25
2023-01-09T10:26:30.836Z,96238.56
2023-01-09T10:29:15.710Z,96222.03
2023-01-09T10:32:04.682Z,96226.84
2023-01-09T10:34:53.813Z,96224.03
2023-01-09T10:37:25.172Z,96220.44
2023-01-09T10:40:08.525Z,96213.44
2023-01-09T10:42:54.581Z,96216.03
2023-01-09T10:45:40.362Z,96225.59
2023-01-09T10:48:20.825Z,96227.53
2023-01-09T10:50:50.308Z,96229.13
2023-01-09T10:53:22.225Z,96237.59
2023-01-09T10:55:55.285Z,96239.63
2023-01-09T10:58:22.915Z,96255.81
2023-01-09T11:00:51.031Z,96254.38
2023-01-09T11:03:20.416Z,96256.34
2023-01-09T11:05:59.012Z,96265.03
2023-01-09T11:08:35.339Z,96267.94
2023-01-09T11:11:03.281Z,96272.19
2023-01-09T11:13:34.202Z,96277.38
2023-01-09T11:16:11.051Z,96274.81
2023-01-09T11:18:51.983Z,96276.88
2023-01-09T11:21:27.841Z,96283.03
2023-01-09T11:24:26.668Z,96283.03
2023-01-09T11:27:14.809Z,96275.41
2023-01-09T11:29:42.224Z,96278.94
2023-01-09T11:32:29.752Z,96269.19
2023-01-09T11:34:56.677Z,96268.69
2023-01-09T11:37:31.021Z,96268.09
2023-01-09T11:40:00.498Z,96265.19
2023-01-09T11:42:48.084Z,96264.03
2023-01-09T11:45:17.879Z,96272.34
2023-01-09T11:47:46.917Z,96271.84
2023-01-09T11:50:25.404Z,96275.03
2023-01-09T11:53:15.494Z,96269.53
2023-01-09T11:55:43.505Z,96271.25
2023-01-09T11:58:18.667Z,96267.44
2023-01-09T12:01:14.702Z,96264.00
2023-01-09T12:04:16.264Z,96267.25
2023-01-09T12:06:48.737Z,96265.09
2023-01-09T12:09:35.350Z,96259.44
2023-01-09T12:12:12.426Z,96254.97
2023-01-09T12:15:10.043Z,96252.34
2023-01-09T12:18:23.969Z,96248.59
2023-01-09T12:20:57.905Z,96246.00
2023-01-09T12:23:42.808Z,96247.03
2023-01-09T12:26:24.133Z,96253.06
2023-01-09T12:29:00.165Z,96252.72
2023-01-09T12:31:55.578Z,96258.44
2023-01-09T12:34:57.131Z,96262.06
2023-01-09T12:38:05.382Z,96255.88
2023-01-09T12:40:44.260Z,96250.13
2023-01-09T12:43:39.322Z,96246.47
2023-01-09T12:46:22.161Z,96239.59
2023-01-09T12:49:00.653Z,96240.81
2023-01-09T12:51:27.316Z,96242.91
2023-01-09T12:53:59.600Z,96236.97
2023-01-09T12:56:40.394Z,96233.78
2023-01-09T12:59:20.691Z,96242.66
2023-01-09T13:01:49.937Z,96242.72
2023-01-09T13:04:56.228Z,96244.56
2023-01-09T13:07:38.438Z,96236.88
2023-01-09T13:10:17.349Z,96243.16
2023-01-09T13:12:47.746Z,96237.47
2023-01-09T13:15:32.150Z,96238.09
2023-01-09T13:18:11.322Z,96237.97
2023-01-09T13:20:47.028Z,96231.78
2023-01-09T13:23:28.647Z,96238.09
2023-01-09T13:25:59.232Z,96232.97
2023-01-09T13:28:35.437Z,96237.97
2023-01-09T13:31:43.524Z,96236.72
2023-01-09T13:34:21.872Z,96232.66
2023-01-09T13:36:52.447Z,96220.69
2023-01-09T13:39:26.183Z,96226.13
2023-01-09T13:42:13.044Z,96233.34
2023-01-09T13:44:42.359Z,96229.34
2023-01-09T13:47:24.812Z,96233.69
2023-01-09T13:49:51.513Z,96230.19
2023-01-09T13:52:53.845Z,96234.22
2023-01-09T13:55:20.536Z,96237.09
2023-01-09T13:58:05.624Z,96235.69
2023-01-09T14:00:35.155Z,96234.66
2023-01-09T14:03:18.115Z,96243.59
2023-01-09T14:05:44.644Z,96248.50
2023-01-09T14:08:19.550Z,96260.47
2023-01-09T14:10:57.706Z,96259.06
2023-01-09T14:13:53.243Z,96254.69
2023-01-09T14:16:23.864Z,96253.88
2023-01-09T14:18:55.483Z,96260.91
2023-01-09T14:21:22.096Z,96259.72
2023-01-09T14:24:01.771Z,96258.63
2023-01-09T14:26:55.270Z,96260.81
2023-01-09T14:29:29.532Z,96262.69
2023-01-09T14:32:20.888Z,96258.84
2023-01-09T14:34:58.681Z,96264.38
2023-01-09T14:37:28.132Z,96270.16
2023-01-09T14:39:56.336Z,96268.97
2023-01-09T14:42:27.612Z,96271.81
2023-01-09T14:45:12.403Z,96273.94
2023-01-09T14:47:48.238Z,96279.19
2023-01-09T14:50:17.678Z,96284.00
2023-01-09T14:52:57.283Z,96297.59
2023-01-09T14:55:34.563Z,96304.69
2023-01-09T14:58:36.021Z,96313.28
2023-01-09T15:01:04.682Z,96298.97
2023-01-09T15:03:44.890Z,96299.34
2023-01-09T15:06:27.061Z,96297.94
2023-01-09T15:09:01.432Z,96303.25
2023-01-09T15:11:28.915Z,96300.00
2023-01-09T15:13:59.015Z,96305.41
2023-01-09T15:16:27.170Z,96302.56
2023-01-09T15:19:00.830Z,96306.25
2023-01-09T15:21:30.977Z,96306.25
2023-01-09T15:24:18.833Z,96296.94
2023-01-09T15:26:55.667Z,96303.03
2023-01-09T15:29:22.908Z,96300.19
2023-01-09T15:32:03.363Z,96293.47
2023-01-09T15:34:30.104Z,96291.09
2023-01-09T15:36:56.885Z,96296.88
2023-01-09T15:39:31.382Z,96285.09
2023-01-09T15:42:18.946Z,96278.47
2023-01-09T15:44:49.027Z,96282.25
2023-01-09T15:47:27.669Z,96284.75
2023-01-09T15:49:56.695Z,96289.91
2023-01-09T15:52:23.715Z,96280.16
2023-01-09T15:54:50.838Z,96272.94
2023-01-09T15:57:26.487Z,96269.78
2023-01-09T15:59:56.904Z,96267.16
2023-01-09T16:02:44.329Z,96265.97
2023-01-09T16:05:16.521Z,96266.56
2023-01-09T16:07:51.331Z,96265.47
2023-01-09T16:10:23.928Z,96260.50
2023-01-09T16:12:52.710Z,96259.59
2023-01-09T16:15:20.616Z,96251.97
2023-01-09T16:18:06.654Z,96261.63
2023-01-09T16:20:33.238Z,96257.66
2023-01-09T16:23:01.363Z,96261.19
2023-01-09T16:25:36.993Z,96267.28
2023-01-09T16:31:02.981Z,96267.66
2023-01-09T16:33:34.290Z,96271.22
2023-01-09T16:36:02.614Z,96271.56
2023-01-09T16:38:29.375Z,96283.47
2023-01-09T16:41:18.886Z,96278.69
2023-01-09T16:43:46.482Z,96287.78
2023-01-09T16:46:15.148Z,96291.94
2023-01-09T16:48:42.210Z,96296.47
2023-01-09T16:51:16.056Z,96298.75
2023-01-09T16:53:43.121Z,96303.94
2023-01-09T16:56:22.198Z,96301.25
2023-01-09T16:58:49.346Z,96302.28
2023-01-09T17:01:16.732Z,96314.09
2023-01-09T17:03:44.234Z,96323.78
2023-01-09T17:06:28.012Z,96321.53
2023-01-09T17:08:54.796Z,96327.94
2023-01-09T17:11:24.532Z,96331.75
2023-01-09T17:13:51.353Z,96336.00
2023-01-09T17:16:18.535Z,96324.84
2023-01-09T17:18:45.501Z,96335.91
2023-01-09T17:21:23.689Z,96332.69
2023-01-09T17:24:09.235Z,96338.09
2023-01-09T17:26:56.694Z,96343.47
2023-01-09T17:29:23.658Z,96340.44
2023-01-09T17:31:52.770Z,96356.59
2023-01-09T17:34:19.750Z,96352.97
2023-01-09T17:36:46.509Z,96350.91
2023-01-09T17:39:14.988Z,96354.59
2023-01-09T17:41:42.011Z,96358.13
2023-01-09T17:44:10.345Z,96353.97
2023-01-09T17:46:41.858Z,96366.19
2023-01-09T17:49:15.673Z,96382.09
2023-01-09T17:51:44.764Z,96385.91
2023-01-09T17:54:11.742Z,96396.66
2023-01-09T17:56:40.780Z,96399.69
2023-01-09T17:59:09.865Z,96409.09
2023-01-09T18:01:36.631Z,96414.47
2023-01-09T18:04:03.267Z,96423.75
2023-01-09T18:06:29.863Z,96418.88
2023-01-09T18:08:58.181Z,96425.56
2023-01-09T18:11:25.378Z,96432.63
2023-01-09T18:13:56.777Z,96436.09
2023-01-09T18:16:25.810Z,96440.72
2023-01-09T18:18:54.046Z,96437.69
2023-01-09T18:21:23.217Z,96436.81
2023-01-09T18:23:50.306Z,96445.69
2023-01-09T18:26:21.070Z,96441.09
2023-01-09T18:28:55.267Z,96424.13
2023-01-09T18:31:23.892Z,96429.63
2023-01-09T18:33:54.660Z,96424.00
2023-01-09T18:36:24.376Z,96421.91
2023-01-09T18:38:52.754Z,96437.63
2023-01-09T18:41:19.909Z,96431.00
2023-01-09T18:43:57.676Z,96454.78
2023-01-09T18:46:25.151Z,96461.19
2023-01-09T18:48:59.457Z,96463.72
2023-01-09T18:51:28.281Z,96465.00
2023-01-09T18:53:55.235Z,96466.78
2023-01-09T18:56:22.421Z,96474.97
2023-01-09T18:58:49.495Z,96477.34
2023-01-09T19:01:17.037Z,96478.50
2023-01-09T19:03:43.831Z,96475.66
2023-01-09T19:06:10.971Z,96469.31
2023-01-09T19:08:37.885Z,96479.00
2023-01-09T19:11:07.163Z,96473.59
2023-01-09T19:13:35.993Z,96470.75
2023-01-09T19:16:04.298Z,96485.63
2023-01-09T19:18:34.311Z,96480.00
2023-01-09T19:21:04.690Z,96484.78
2023-01-09T19:23:33.529Z,96493.16
2023-01-09T19:26:08.813Z,96501.06
2023-01-09T19:28:36.593Z,96496.59
2023-01-09T19:31:03.357Z,96507.38
2023-01-09T19:33:30.015Z,96508.88
2023-01-09T19:35:56.589Z,96513.59
2023-01-09T19:38:23.320Z,96515.34
2023-01-09T19:40:50.306Z,96530.34
2023-01-09T19:43:28.571Z,96537.00
2023-01-09T19:45:56.733Z,96543.00
2023-01-09T19:48:24.309Z,96539.56
2023-01-09T19:50:50.846Z,96548.44
2023-01-09T19:53:17.536Z,96557.13
2023-01-09T19:55:44.119Z,96558.91
2023-01-09T19:58:11.119Z,96551.00
2023-01-09T20:00:40.789Z,96554.78
2023-01-09T20:03:07.405Z,96566.66
2023-01-09T20:05:34.044Z,96569.72
2023-01-09T20:08:06.280Z,96574.03
2023-01-09T20:10:33.600Z,96577.97
2023-01-09T20:13:02.505Z,96574.38
2023-01-09T20:15:29.113Z,96591.31
2023-01-09T20:17:58.316Z,96592.16
2023-01-09T20:20:24.968Z,96591.09
2023-01-09T20:22:54.206Z,96598.13
2023-01-09T20:25:20.799Z,96605.44
2023-01-09T20:27:47.390Z,96609.75
2023-01-09T20:30:15.872Z,96607.88
2023-01-09T20:32:44.607Z,96606.16
2023-01-09T20:35:11.213Z,96613.50
2023-01-09T20:37:40.052Z,96610.63
2023-01-09T20:40:07.111Z,96613.56
2023-01-09T20:42:33.647Z,96626.06
2023-01-09T20:45:00.219Z,96629.38
2023-01-09T20:47:26.819Z,96627.31
2023-01-09T20:49:53.506Z,96635.28
2023-01-09T20:52:22.605Z,96631.84
2023-01-09T20:54:51.639Z,96632.44
2023-01-09T20:57:18.316Z,96633.41
2023-01-09T20:59:44.989Z,96632.63
2023-01-09T21:02:14.848Z,96619.53
2023-01-09T21:04:41.576Z,96622.25
2023-01-09T21:07:11.109Z,96632.09
2023-01-09T21:09:37.927Z,96629.88
2023-01-09T21:12:24.692Z,96626.97
2023-01-09T21:14:51.923Z,96636.84
2023-01-09T21:17:18.724Z,96631.31
2023-01-09T21:19:49.851Z,96639.72
2023-01-09T21:22:17.048Z,96642.94
2023-01-09T21:24:43.736Z,96642.94
2023-01-09T21:27:10.458Z,96651.97
2023-01-09T21:29:37.346Z,96658.47
2023-01-09T21:32:04.102Z,96663.75
2023-01-09T21:34:30.879Z,96661.19
2023-01-09T21:36:57.643Z,96666.16
2023-01-09T21:39:24.369Z,96671.78
2023-01-09T21:42:09.442Z,96678.97
2023-01-09T21:44:54.868Z,96684.31
2023-01-09T21:47:21.457Z,96686.53
2023-01-09T21:49:48.432Z,96687.75
2023-01-09T21:52:15.311Z,96691.59
2023-01-09T21:54:42.143Z,96690.06
2023-01-09T21:57:11.371Z,96707.50
2023-01-09T21:59:38.293Z,96709.38
2023-01-09T22:02:04.776Z,96704.59
2023-01-09T22:04:32.380Z,96717.88
2023-01-09T22:06:58.942Z,96718.50
2023-01-09T22:09:25.509Z,96728.75
2023-01-09T22:11:52.014Z,96730.84
2023-01-09T22:14:19.784Z,96725.75
2023-01-09T22:16:46.532Z,96735.38
2023-01-09T22:19:14.808Z,96743.97
2023-01-09T22:21:41.328Z,96726.56
2023-01-09T22:24:08.008Z,96721.19
2023-01-09T22:26:35.174Z,96724.94
2023-01-09T22:29:03.844Z,96731.16
2023-01-09T22:31:32.698Z,96731.75
2023-01-09T22:34:01.003Z,96737.78
2023-01-09T22:36:29.584Z,96736.75
2023-01-09T22:38:58.293Z,96741.53
2023-01-09T22:41:29.733Z,96755.19
2023-01-09T22:43:56.446Z,96751.34
2023-01-09T22:46:22.999Z,96754.25
2023-01-09T22:48:49.532Z,96766.00
2023-01-09T22:51:18.448Z,96756.75
2023-01-09T22:53:45.736Z,96769.28
2023-01-09T22:56:17.331Z,96770.44
2023-01-09T22:58:44.766Z,96776.34
2023-01-09T23:01:12.277Z,96772.19
2023-01-09T23:03:39.605Z,96770.75
2023-01-09T23:06:12.270Z,96771.06
2023-01-09T23:08:39.577Z,96776.97
2023-01-09T23:11:09.399Z,96776.25
2023-01-09T23:13:35.985Z,96773.84
2023-01-09T23:16:03.472Z,96783.06
2023-01-09T23:18:30.275Z,96784.19
2023-01-09T23:21:02.659Z,96777.66
2023-01-09T23:23:30.866Z,96776.97
2023-01-09T23:26:00.467Z,96774.97
2023-01-09T23:28:27.702Z,96780.81
2023-01-09T23:30:54.770Z,96776.75
2023-01-09T23:33:21.336Z,96782.41
2023-01-09T23:35:51.100Z,96775.59
2023-01-09T23:38:17.609Z,96782.56
2023-01-09T23:40:44.090Z,96787.44
2023-01-09T23:43:12.142Z,96785.03
2023-01-09T23:45:43.728Z,96797.78
2023-01-09T23:48:13.021Z,96796.31
2023-01-09T23:50:42.293Z,96794.78
2023-01-09T23:53:09.283Z,96801.63
2023-01-09T23:55:35.960Z,96795.53
2023-01-09T23:58:02.474Z,96810.84
